sensor_id;sensor_type;location;lat;lon;timestamp;P1;durP1;ratioP1;P2;durP2;ratioP2
9106;SDS011;4589;48.690;8.952;2023-04-24T00:01:14;3.03;;;2.10;;
9106;SDS011;4589;48.690;8.952;2023-04-24T00:03:42;3.10;;;2.20;;
9106;SDS011;4589;48.690;8.952;2023-04-24T00:06:07;2.80;;;2.00;;
9106;SDS011;4589;48.690;8.952;2023-04-24T00:08:36;5.53;;;2.73;;
9106;SDS011;4589;48.690;8.952;2023-04-24T00:11:02;2.30;;;2.10;;
9106;SDS011;4589;48.690;8.952;2023-04-24T00:13:28;2.83;;;1.97;;
9106;SDS011;4589;48.690;8.952;2023-04-24T00:15:56;2.23;;;2.10;;
9106;SDS011;4589;48.690;8.952;2023-04-24T00:18:22;4.93;;;2.20;;
9106;SDS011;4589;48.690;8.952;2023-04-24T00:20:47;3.63;;;1.70;;
9106;SDS011;4589;48.690;8.952;2023-04-24T00:23:13;1.90;;;1.80;;
9106;SDS011;4589;48.690;8.952;2023-04-24T00:25:39;2.87;;;1.90;;
9106;SDS011;4589;48.690;8.952;2023-04-24T00:28:05;2.70;;;1.40;;
9106;SDS011;4589;48.690;8.952;2023-04-24T00:30:30;2.97;;;2.20;;
9106;SDS011;4589;48.690;8.952;2023-04-24T00:32:56;2.30;;;1.77;;
9106;SDS011;4589;48.690;8.952;2023-04-24T00:35:24;1.80;;;1.70;;
9106;SDS011;4589;48.690;8.952;2023-04-24T00:37:50;4.70;;;1.57;;
9106;SDS011;4589;48.690;8.952;2023-04-24T00:40:15;2.00;;;1.80;;
9106;SDS011;4589;48.690;8.952;2023-04-24T00:42:41;4.60;;;2.03;;
9106;SDS011;4589;48.690;8.952;2023-04-24T00:45:08;2.30;;;1.83;;
9106;SDS011;4589;48.690;8.952;2023-04-24T00:47:34;2.43;;;1.60;;
9106;SDS011;4589;48.690;8.952;2023-04-24T00:50:01;2.43;;;1.70;;
9106;SDS011;4589;48.690;8.952;2023-04-24T00:52:28;2.13;;;1.50;;
9106;SDS011;4589;48.690;8.952;2023-04-24T00:54:56;1.67;;;1.57;;
9106;SDS011;4589;48.690;8.952;2023-04-24T00:57:22;3.40;;;1.90;;
9106;SDS011;4589;48.690;8.952;2023-04-24T00:59:48;2.70;;;1.83;;
9106;SDS011;4589;48.690;8.952;2023-04-24T01:02:14;2.27;;;2.00;;
9106;SDS011;4589;48.690;8.952;2023-04-24T01:04:40;1.70;;;1.60;;
9106;SDS011;4589;48.690;8.952;2023-04-24T01:07:06;2.70;;;1.70;;
9106;SDS011;4589;48.690;8.952;2023-04-24T01:09:35;7.03;;;1.50;;
9106;SDS011;4589;48.690;8.952;2023-04-24T01:12:06;2.70;;;1.67;;
9106;SDS011;4589;48.690;8.952;2023-04-24T01:14:32;1.90;;;1.57;;
9106;SDS011;4589;48.690;8.952;2023-04-24T01:16:58;1.87;;;1.73;;
9106;SDS011;4589;48.690;8.952;2023-04-24T01:19:25;2.30;;;2.10;;
9106;SDS011;4589;48.690;8.952;2023-04-24T01:21:51;2.13;;;2.03;;
9106;SDS011;4589;48.690;8.952;2023-04-24T01:24:19;3.37;;;2.13;;
9106;SDS011;4589;48.690;8.952;2023-04-24T01:26:45;2.13;;;1.93;;
9106;SDS011;4589;48.690;8.952;2023-04-24T01:29:11;5.63;;;2.23;;
9106;SDS011;4589;48.690;8.952;2023-04-24T01:31:37;2.53;;;1.90;;
9106;SDS011;4589;48.690;8.952;2023-04-24T01:34:04;2.20;;;1.90;;
9106;SDS011;4589;48.690;8.952;2023-04-24T01:36:30;2.10;;;1.90;;
9106;SDS011;4589;48.690;8.952;2023-04-24T01:38:57;2.10;;;1.90;;
9106;SDS011;4589;48.690;8.952;2023-04-24T01:41:24;4.10;;;2.60;;
9106;SDS011;4589;48.690;8.952;2023-04-24T01:43:50;3.07;;;2.07;;
9106;SDS011;4589;48.690;8.952;2023-04-24T01:46:16;3.93;;;2.23;;
9106;SDS011;4589;48.690;8.952;2023-04-24T01:48:42;2.10;;;1.90;;
9106;SDS011;4589;48.690;8.952;2023-04-24T01:51:08;2.60;;;2.40;;
9106;SDS011;4589;48.690;8.952;2023-04-24T01:53:34;2.03;;;1.77;;
9106;SDS011;4589;48.690;8.952;2023-04-24T01:56:00;2.20;;;2.00;;
9106;SDS011;4589;48.690;8.952;2023-04-24T01:58:26;2.10;;;1.90;;
9106;SDS011;4589;48.690;8.952;2023-04-24T02:00:52;2.60;;;2.23;;
9106;SDS011;4589;48.690;8.952;2023-04-24T02:03:18;2.80;;;2.00;;
9106;SDS011;4589;48.690;8.952;2023-04-24T02:05:44;4.33;;;2.17;;
9106;SDS011;4589;48.690;8.952;2023-04-24T02:08:10;2.67;;;2.30;;
9106;SDS011;4589;48.690;8.952;2023-04-24T02:10:36;6.90;;;2.20;;
9106;SDS011;4589;48.690;8.952;2023-04-24T02:13:01;2.63;;;2.03;;
9106;SDS011;4589;48.690;8.952;2023-04-24T02:15:27;3.17;;;2.10;;
9106;SDS011;4589;48.690;8.952;2023-04-24T02:17:53;2.23;;;2.03;;
9106;SDS011;4589;48.690;8.952;2023-04-24T02:20:19;2.83;;;2.00;;
9106;SDS011;4589;48.690;8.952;2023-04-24T02:22:45;2.90;;;2.10;;
9106;SDS011;4589;48.690;8.952;2023-04-24T02:25:10;2.67;;;2.20;;
9106;SDS011;4589;48.690;8.952;2023-04-24T02:27:36;3.87;;;2.03;;
9106;SDS011;4589;48.690;8.952;2023-04-24T02:30:02;3.80;;;2.10;;
9106;SDS011;4589;48.690;8.952;2023-04-24T02:32:28;3.30;;;2.30;;
9106;SDS011;4589;48.690;8.952;2023-04-24T02:34:53;4.87;;;2.63;;
9106;SDS011;4589;48.690;8.952;2023-04-24T02:37:19;2.90;;;2.60;;
9106;SDS011;4589;48.690;8.952;2023-04-24T02:39:44;3.13;;;2.60;;
9106;SDS011;4589;48.690;8.952;2023-04-24T02:42:10;2.50;;;2.30;;
9106;SDS011;4589;48.690;8.952;2023-04-24T02:44:36;4.13;;;2.60;;
9106;SDS011;4589;48.690;8.952;2023-04-24T02:47:02;3.50;;;2.50;;
9106;SDS011;4589;48.690;8.952;2023-04-24T02:49:28;9.37;;;3.10;;
9106;SDS011;4589;48.690;8.952;2023-04-24T02:51:54;3.10;;;2.63;;
9106;SDS011;4589;48.690;8.952;2023-04-24T02:54:20;8.00;;;3.00;;
9106;SDS011;4589;48.690;8.952;2023-04-24T02:56:45;5.57;;;2.60;;
9106;SDS011;4589;48.690;8.952;2023-04-24T02:59:11;4.67;;;2.20;;
9106;SDS011;4589;48.690;8.952;2023-04-24T03:01:37;3.50;;;2.50;;
9106;SDS011;4589;48.690;8.952;2023-04-24T03:04:03;2.80;;;2.50;;
9106;SDS011;4589;48.690;8.952;2023-04-24T03:06:29;2.60;;;2.27;;
9106;SDS011;4589;48.690;8.952;2023-04-24T03:08:57;6.20;;;2.70;;
9106;SDS011;4589;48.690;8.952;2023-04-24T03:11:23;4.40;;;2.80;;
9106;SDS011;4589;48.690;8.952;2023-04-24T03:13:49;3.97;;;2.20;;
9106;SDS011;4589;48.690;8.952;2023-04-24T03:16:14;3.60;;;2.40;;
9106;SDS011;4589;48.690;8.952;2023-04-24T03:18:40;3.37;;;2.67;;
9106;SDS011;4589;48.690;8.952;2023-04-24T03:21:06;5.70;;;2.23;;
9106;SDS011;4589;48.690;8.952;2023-04-24T03:23:32;2.97;;;2.53;;
9106;SDS011;4589;48.690;8.952;2023-04-24T03:25:58;4.80;;;2.97;;
9106;SDS011;4589;48.690;8.952;2023-04-24T03:28:24;2.77;;;2.37;;
9106;SDS011;4589;48.690;8.952;2023-04-24T03:30:50;7.73;;;2.50;;
9106;SDS011;4589;48.690;8.952;2023-04-24T03:33:17;3.40;;;2.27;;
9106;SDS011;4589;48.690;8.952;2023-04-24T03:35:43;3.63;;;2.53;;
9106;SDS011;4589;48.690;8.952;2023-04-24T03:38:08;3.47;;;2.80;;
9106;SDS011;4589;48.690;8.952;2023-04-24T03:40:35;2.87;;;2.60;;
9106;SDS011;4589;48.690;8.952;2023-04-24T03:43:01;4.37;;;2.07;;
9106;SDS011;4589;48.690;8.952;2023-04-24T03:45:27;3.80;;;2.63;;
9106;SDS011;4589;48.690;8.952;2023-04-24T03:47:52;4.83;;;2.67;;
9106;SDS011;4589;48.690;8.952;2023-04-24T03:50:18;4.37;;;2.40;;
9106;SDS011;4589;48.690;8.952;2023-04-24T03:52:44;2.73;;;2.53;;
9106;SDS011;4589;48.690;8.952;2023-04-24T03:55:10;3.40;;;2.63;;
9106;SDS011;4589;48.690;8.952;2023-04-24T03:57:37;4.40;;;2.70;;
9106;SDS011;4589;48.690;8.952;2023-04-24T04:00:03;2.80;;;1.83;;
9106;SDS011;4589;48.690;8.952;2023-04-24T04:02:30;3.60;;;2.40;;
9106;SDS011;4589;48.690;8.952;2023-04-24T04:04:55;4.73;;;2.20;;
9106;SDS011;4589;48.690;8.952;2023-04-24T04:07:21;5.07;;;2.70;;
9106;SDS011;4589;48.690;8.952;2023-04-24T04:09:47;2.90;;;2.20;;
9106;SDS011;4589;48.690;8.952;2023-04-24T04:12:13;2.80;;;2.00;;
9106;SDS011;4589;48.690;8.952;2023-04-24T04:14:39;2.43;;;2.10;;
9106;SDS011;4589;48.690;8.952;2023-04-24T04:17:05;2.43;;;2.23;;
9106;SDS011;4589;48.690;8.952;2023-04-24T04:19:31;2.57;;;2.20;;
9106;SDS011;4589;48.690;8.952;2023-04-24T04:21:56;8.10;;;2.40;;
9106;SDS011;4589;48.690;8.952;2023-04-24T04:24:22;0.83;;;0.60;;
9106;SDS011;4589;48.690;8.952;2023-04-24T04:26:49;0.90;;;0.60;;
9106;SDS011;4589;48.690;8.952;2023-04-24T04:29:16;0.90;;;0.60;;
9106;SDS011;4589;48.690;8.952;2023-04-24T04:31:43;1.00;;;0.60;;
9106;SDS011;4589;48.690;8.952;2023-04-24T04:34:09;0.90;;;0.60;;
9106;SDS011;4589;48.690;8.952;2023-04-24T04:36:36;0.90;;;0.60;;
9106;SDS011;4589;48.690;8.952;2023-04-24T04:39:05;0.90;;;0.60;;
9106;SDS011;4589;48.690;8.952;2023-04-24T04:41:30;0.90;;;0.60;;
9106;SDS011;4589;48.690;8.952;2023-04-24T04:43:57;0.90;;;0.60;;
9106;SDS011;4589;48.690;8.952;2023-04-24T04:46:23;0.90;;;0.60;;
9106;SDS011;4589;48.690;8.952;2023-04-24T04:48:51;0.90;;;0.60;;
9106;SDS011;4589;48.690;8.952;2023-04-24T04:51:17;1.00;;;0.80;;
9106;SDS011;4589;48.690;8.952;2023-04-24T04:53:43;0.90;;;0.60;;
9106;SDS011;4589;48.690;8.952;2023-04-24T04:56:09;0.90;;;0.60;;
9106;SDS011;4589;48.690;8.952;2023-04-24T04:58:35;0.80;;;0.60;;
9106;SDS011;4589;48.690;8.952;2023-04-24T05:01:00;0.90;;;0.60;;
9106;SDS011;4589;48.690;8.952;2023-04-24T05:03:27;0.90;;;0.60;;
9106;SDS011;4589;48.690;8.952;2023-04-24T05:05:52;0.90;;;0.60;;
9106;SDS011;4589;48.690;8.952;2023-04-24T05:08:18;0.90;;;0.60;;
9106;SDS011;4589;48.690;8.952;2023-04-24T05:10:44;0.90;;;0.60;;
9106;SDS011;4589;48.690;8.952;2023-04-24T05:13:10;0.90;;;0.60;;
9106;SDS011;4589;48.690;8.952;2023-04-24T05:15:35;0.90;;;0.80;;
9106;SDS011;4589;48.690;8.952;2023-04-24T05:18:01;3.27;;;2.60;;
9106;SDS011;4589;48.690;8.952;2023-04-24T05:20:26;4.30;;;2.90;;
9106;SDS011;4589;48.690;8.952;2023-04-24T05:22:52;7.13;;;3.23;;
9106;SDS011;4589;48.690;8.952;2023-04-24T05:25:18;3.50;;;2.83;;
9106;SDS011;4589;48.690;8.952;2023-04-24T05:27:44;7.50;;;3.30;;
9106;SDS011;4589;48.690;8.952;2023-04-24T05:30:11;3.20;;;2.50;;
9106;SDS011;4589;48.690;8.952;2023-04-24T05:32:37;6.23;;;3.30;;
9106;SDS011;4589;48.690;8.952;2023-04-24T05:35:03;4.27;;;3.50;;
9106;SDS011;4589;48.690;8.952;2023-04-24T05:37:29;5.53;;;3.07;;
9106;SDS011;4589;48.690;8.952;2023-04-24T05:39:55;4.57;;;3.53;;
9106;SDS011;4589;48.690;8.952;2023-04-24T05:42:21;4.80;;;3.50;;
9106;SDS011;4589;48.690;8.952;2023-04-24T05:44:47;4.03;;;3.50;;
9106;SDS011;4589;48.690;8.952;2023-04-24T05:47:13;6.23;;;4.10;;
9106;SDS011;4589;48.690;8.952;2023-04-24T05:49:39;6.60;;;3.90;;
9106;SDS011;4589;48.690;8.952;2023-04-24T05:52:04;4.93;;;3.70;;
9106;SDS011;4589;48.690;8.952;2023-04-24T05:54:33;4.73;;;4.03;;
9106;SDS011;4589;48.690;8.952;2023-04-24T05:56:59;6.40;;;4.53;;
9106;SDS011;4589;48.690;8.952;2023-04-24T05:59:29;10.70;;;4.33;;
9106;SDS011;4589;48.690;8.952;2023-04-24T06:01:54;5.23;;;3.97;;
9106;SDS011;4589;48.690;8.952;2023-04-24T06:04:21;6.60;;;4.37;;
9106;SDS011;4589;48.690;8.952;2023-04-24T06:06:47;8.50;;;5.00;;
9106;SDS011;4589;48.690;8.952;2023-04-24T06:09:15;6.00;;;4.47;;
9106;SDS011;4589;48.690;8.952;2023-04-24T06:11:42;5.10;;;4.30;;
9106;SDS011;4589;48.690;8.952;2023-04-24T06:14:08;11.67;;;4.67;;
9106;SDS011;4589;48.690;8.952;2023-04-24T06:16:33;10.80;;;4.67;;
9106;SDS011;4589;48.690;8.952;2023-04-24T06:18:59;8.30;;;4.80;;
9106;SDS011;4589;48.690;8.952;2023-04-24T06:21:25;4.90;;;4.40;;
9106;SDS011;4589;48.690;8.952;2023-04-24T06:23:52;7.27;;;4.27;;
9106;SDS011;4589;48.690;8.952;2023-04-24T06:26:18;5.60;;;3.93;;
9106;SDS011;4589;48.690;8.952;2023-04-24T06:28:44;4.30;;;3.90;;
9106;SDS011;4589;48.690;8.952;2023-04-24T06:31:10;3.80;;;3.20;;
9106;SDS011;4589;48.690;8.952;2023-04-24T06:33:36;5.13;;;3.90;;
9106;SDS011;4589;48.690;8.952;2023-04-24T06:36:02;4.20;;;3.40;;
9106;SDS011;4589;48.690;8.952;2023-04-24T06:38:29;3.63;;;3.33;;
9106;SDS011;4589;48.690;8.952;2023-04-24T06:40:55;2.83;;;2.53;;
9106;SDS011;4589;48.690;8.952;2023-04-24T06:43:21;9.73;;;2.80;;
9106;SDS011;4589;48.690;8.952;2023-04-24T06:45:47;5.23;;;3.00;;
9106;SDS011;4589;48.690;8.952;2023-04-24T06:48:13;3.07;;;2.77;;
9106;SDS011;4589;48.690;8.952;2023-04-24T06:50:38;3.23;;;2.90;;
9106;SDS011;4589;48.690;8.952;2023-04-24T06:53:05;3.80;;;3.50;;
9106;SDS011;4589;48.690;8.952;2023-04-24T06:55:30;2.77;;;2.57;;
9106;SDS011;4589;48.690;8.952;2023-04-24T06:57:56;2.93;;;2.63;;
9106;SDS011;4589;48.690;8.952;2023-04-24T07:00:21;2.80;;;2.53;;
9106;SDS011;4589;48.690;8.952;2023-04-24T07:02:49;7.67;;;2.70;;
9106;SDS011;4589;48.690;8.952;2023-04-24T07:05:14;2.80;;;2.57;;
9106;SDS011;4589;48.690;8.952;2023-04-24T07:07:40;3.10;;;2.80;;
9106;SDS011;4589;48.690;8.952;2023-04-24T07:10:06;2.70;;;2.50;;
9106;SDS011;4589;48.690;8.952;2023-04-24T07:12:33;3.00;;;2.80;;
9106;SDS011;4589;48.690;8.952;2023-04-24T07:15:00;4.37;;;2.77;;
9106;SDS011;4589;48.690;8.952;2023-04-24T07:17:26;2.60;;;2.40;;
9106;SDS011;4589;48.690;8.952;2023-04-24T07:19:52;2.73;;;2.33;;
9106;SDS011;4589;48.690;8.952;2023-04-24T07:22:18;11.10;;;3.30;;
9106;SDS011;4589;48.690;8.952;2023-04-24T07:24:44;2.93;;;2.60;;
9106;SDS011;4589;48.690;8.952;2023-04-24T07:27:10;2.70;;;2.20;;
9106;SDS011;4589;48.690;8.952;2023-04-24T07:29:36;2.70;;;2.50;;
9106;SDS011;4589;48.690;8.952;2023-04-24T07:32:03;2.47;;;2.27;;
9106;SDS011;4589;48.690;8.952;2023-04-24T07:34:29;3.77;;;2.30;;
9106;SDS011;4589;48.690;8.952;2023-04-24T07:36:54;2.07;;;1.87;;
9106;SDS011;4589;48.690;8.952;2023-04-24T07:39:20;1.73;;;1.63;;
9106;SDS011;4589;48.690;8.952;2023-04-24T07:41:46;2.60;;;2.30;;
9106;SDS011;4589;48.690;8.952;2023-04-24T07:44:12;1.90;;;1.80;;
9106;SDS011;4589;48.690;8.952;2023-04-24T07:46:37;2.40;;;2.20;;
9106;SDS011;4589;48.690;8.952;2023-04-24T07:49:03;1.87;;;1.77;;
9106;SDS011;4589;48.690;8.952;2023-04-24T07:51:29;2.37;;;2.17;;
9106;SDS011;4589;48.690;8.952;2023-04-24T07:53:56;2.23;;;2.00;;
9106;SDS011;4589;48.690;8.952;2023-04-24T07:56:22;4.70;;;2.30;;
9106;SDS011;4589;48.690;8.952;2023-04-24T07:58:48;2.40;;;2.20;;
9106;SDS011;4589;48.690;8.952;2023-04-24T08:01:13;2.77;;;2.20;;
9106;SDS011;4589;48.690;8.952;2023-04-24T08:03:39;3.23;;;2.23;;
9106;SDS011;4589;48.690;8.952;2023-04-24T08:06:05;2.90;;;2.30;;
9106;SDS011;4589;48.690;8.952;2023-04-24T08:08:31;3.83;;;2.20;;
9106;SDS011;4589;48.690;8.952;2023-04-24T08:10:57;2.13;;;1.93;;
9106;SDS011;4589;48.690;8.952;2023-04-24T08:13:23;3.03;;;1.90;;
9106;SDS011;4589;48.690;8.952;2023-04-24T08:15:48;2.27;;;2.10;;
9106;SDS011;4589;48.690;8.952;2023-04-24T08:18:14;7.73;;;2.17;;
9106;SDS011;4589;48.690;8.952;2023-04-24T08:20:40;2.07;;;1.90;;
9106;SDS011;4589;48.690;8.952;2023-04-24T08:23:06;2.33;;;1.90;;
9106;SDS011;4589;48.690;8.952;2023-04-24T08:25:32;3.73;;;2.50;;
9106;SDS011;4589;48.690;8.952;2023-04-24T08:28:00;2.40;;;2.20;;
9106;SDS011;4589;48.690;8.952;2023-04-24T08:30:26;2.23;;;2.00;;
9106;SDS011;4589;48.690;8.952;2023-04-24T08:32:52;2.03;;;1.87;;
9106;SDS011;4589;48.690;8.952;2023-04-24T08:35:18;2.60;;;2.40;;
9106;SDS011;4589;48.690;8.952;2023-04-24T08:37:43;2.23;;;2.03;;
9106;SDS011;4589;48.690;8.952;2023-04-24T08:40:13;2.23;;;2.03;;
9106;SDS011;4589;48.690;8.952;2023-04-24T08:42:41;2.20;;;2.00;;
9106;SDS011;4589;48.690;8.952;2023-04-24T08:45:08;3.87;;;2.30;;
9106;SDS011;4589;48.690;8.952;2023-04-24T08:47:35;3.60;;;2.30;;
9106;SDS011;4589;48.690;8.952;2023-04-24T08:50:02;5.03;;;2.37;;
9106;SDS011;4589;48.690;8.952;2023-04-24T08:52:28;3.57;;;2.33;;
9106;SDS011;4589;48.690;8.952;2023-04-24T08:54:54;4.37;;;2.47;;
9106;SDS011;4589;48.690;8.952;2023-04-24T08:57:20;2.83;;;2.57;;
9106;SDS011;4589;48.690;8.952;2023-04-24T08:59:47;2.90;;;2.63;;
9106;SDS011;4589;48.690;8.952;2023-04-24T09:02:13;2.50;;;2.27;;
9106;SDS011;4589;48.690;8.952;2023-04-24T09:04:40;3.20;;;1.77;;
9106;SDS011;4589;48.690;8.952;2023-04-24T09:07:07;2.70;;;2.13;;
9106;SDS011;4589;48.690;8.952;2023-04-24T09:09:35;2.60;;;2.40;;
9106;SDS011;4589;48.690;8.952;2023-04-24T09:12:03;3.40;;;2.20;;
9106;SDS011;4589;48.690;8.952;2023-04-24T09:14:29;5.70;;;2.13;;
9106;SDS011;4589;48.690;8.952;2023-04-24T09:16:56;2.07;;;1.90;;
9106;SDS011;4589;48.690;8.952;2023-04-24T09:19:22;5.00;;;2.10;;
9106;SDS011;4589;48.690;8.952;2023-04-24T09:21:48;2.57;;;1.80;;
9106;SDS011;4589;48.690;8.952;2023-04-24T09:24:15;1.70;;;1.60;;
9106;SDS011;4589;48.690;8.952;2023-04-24T09:26:47;2.60;;;1.53;;
9106;SDS011;4589;48.690;8.952;2023-04-24T09:29:16;3.00;;;1.60;;
9106;SDS011;4589;48.690;8.952;2023-04-24T09:31:42;2.03;;;1.83;;
9106;SDS011;4589;48.690;8.952;2023-04-24T09:34:08;1.97;;;1.60;;
9106;SDS011;4589;48.690;8.952;2023-04-24T09:36:36;1.90;;;1.50;;
9106;SDS011;4589;48.690;8.952;2023-04-24T09:39:04;3.80;;;1.63;;
9106;SDS011;4589;48.690;8.952;2023-04-24T09:41:31;1.40;;;1.30;;
9106;SDS011;4589;48.690;8.952;2023-04-24T09:43:58;4.13;;;1.50;;
9106;SDS011;4589;48.690;8.952;2023-04-24T09:46:42;1.90;;;1.80;;
9106;SDS011;4589;48.690;8.952;2023-04-24T09:49:11;1.40;;;1.30;;
9106;SDS011;4589;48.690;8.952;2023-04-24T09:51:38;3.27;;;1.60;;
9106;SDS011;4589;48.690;8.952;2023-04-24T09:54:11;1.80;;;1.30;;
9106;SDS011;4589;48.690;8.952;2023-04-24T09:56:42;6.43;;;1.57;;
9106;SDS011;4589;48.690;8.952;2023-04-24T09:59:13;1.77;;;1.43;;
9106;SDS011;4589;48.690;8.952;2023-04-24T10:01:39;1.93;;;1.70;;
9106;SDS011;4589;48.690;8.952;2023-04-24T10:04:14;2.17;;;1.90;;
9106;SDS011;4589;48.690;8.952;2023-04-24T10:06:46;1.70;;;1.60;;
9106;SDS011;4589;48.690;8.952;2023-04-24T10:09:14;4.40;;;2.10;;
9106;SDS011;4589;48.690;8.952;2023-04-24T10:11:41;1.60;;;1.50;;
9106;SDS011;4589;48.690;8.952;2023-04-24T10:14:11;3.00;;;1.40;;
9106;SDS011;4589;48.690;8.952;2023-04-24T10:16:39;2.20;;;2.00;;
9106;SDS011;4589;48.690;8.952;2023-04-24T10:19:05;1.50;;;1.40;;
9106;SDS011;4589;48.690;8.952;2023-04-24T10:21:31;1.33;;;1.23;;
9106;SDS011;4589;48.690;8.952;2023-04-24T10:23:57;1.30;;;1.20;;
9106;SDS011;4589;48.690;8.952;2023-04-24T10:26:25;2.17;;;1.60;;
9106;SDS011;4589;48.690;8.952;2023-04-24T10:28:52;1.30;;;1.20;;
9106;SDS011;4589;48.690;8.952;2023-04-24T10:31:19;1.80;;;1.53;;
9106;SDS011;4589;48.690;8.952;2023-04-24T10:33:45;1.70;;;1.57;;
9106;SDS011;4589;48.690;8.952;2023-04-24T10:36:11;2.03;;;1.83;;
9106;SDS011;4589;48.690;8.952;2023-04-24T10:38:40;1.60;;;1.50;;
9106;SDS011;4589;48.690;8.952;2023-04-24T10:41:11;1.50;;;1.40;;
9106;SDS011;4589;48.690;8.952;2023-04-24T10:43:48;1.83;;;1.57;;
9106;SDS011;4589;48.690;8.952;2023-04-24T10:46:29;1.60;;;1.30;;
9106;SDS011;4589;48.690;8.952;2023-04-24T10:48:55;2.90;;;1.70;;
9106;SDS011;4589;48.690;8.952;2023-04-24T10:51:21;2.13;;;1.20;;
9106;SDS011;4589;48.690;8.952;2023-04-24T10:53:51;1.60;;;1.50;;
9106;SDS011;4589;48.690;8.952;2023-04-24T10:56:17;1.97;;;1.37;;
9106;SDS011;4589;48.690;8.952;2023-04-24T10:58:44;1.60;;;1.50;;
9106;SDS011;4589;48.690;8.952;2023-04-24T11:01:26;1.70;;;1.60;;
9106;SDS011;4589;48.690;8.952;2023-04-24T11:03:57;3.57;;;1.53;;
9106;SDS011;4589;48.690;8.952;2023-04-24T11:06:30;3.67;;;1.93;;
9106;SDS011;4589;48.690;8.952;2023-04-24T11:09:10;2.10;;;1.97;;
9106;SDS011;4589;48.690;8.952;2023-04-24T11:11:44;2.20;;;2.00;;
9106;SDS011;4589;48.690;8.952;2023-04-24T11:14:13;1.80;;;1.60;;
9106;SDS011;4589;48.690;8.952;2023-04-24T11:16:44;1.90;;;1.80;;
9106;SDS011;4589;48.690;8.952;2023-04-24T11:29:29;3.10;;;1.87;;
9106;SDS011;4589;48.690;8.952;2023-04-24T11:32:14;2.47;;;1.70;;
9106;SDS011;4589;48.690;8.952;2023-04-24T11:34:45;2.90;;;1.80;;
9106;SDS011;4589;48.690;8.952;2023-04-24T11:37:12;2.33;;;1.60;;
9106;SDS011;4589;48.690;8.952;2023-04-24T11:39:38;2.10;;;1.70;;
9106;SDS011;4589;48.690;8.952;2023-04-24T11:42:04;5.23;;;1.80;;
9106;SDS011;4589;48.690;8.952;2023-04-24T11:44:31;3.17;;;2.20;;
9106;SDS011;4589;48.690;8.952;2023-04-24T11:46:59;2.37;;;1.60;;
9106;SDS011;4589;48.690;8.952;2023-04-24T11:49:25;2.50;;;1.67;;
9106;SDS011;4589;48.690;8.952;2023-04-24T11:51:54;2.27;;;2.00;;
9106;SDS011;4589;48.690;8.952;2023-04-24T11:54:20;3.47;;;2.93;;
9106;SDS011;4589;48.690;8.952;2023-04-24T11:56:46;3.47;;;2.23;;
9106;SDS011;4589;48.690;8.952;2023-04-24T11:59:12;1.70;;;1.60;;
9106;SDS011;4589;48.690;8.952;2023-04-24T12:01:45;2.13;;;1.93;;
9106;SDS011;4589;48.690;8.952;2023-04-24T12:04:10;1.77;;;1.60;;
9106;SDS011;4589;48.690;8.952;2023-04-24T12:06:37;2.23;;;2.00;;
9106;SDS011;4589;48.690;8.952;2023-04-24T12:09:02;2.20;;;2.00;;
9106;SDS011;4589;48.690;8.952;2023-04-24T12:11:29;3.13;;;1.83;;
9106;SDS011;4589;48.690;8.952;2023-04-24T12:13:55;3.80;;;2.17;;
9106;SDS011;4589;48.690;8.952;2023-04-24T12:16:21;2.00;;;1.80;;
9106;SDS011;4589;48.690;8.952;2023-04-24T12:18:47;1.80;;;1.70;;
9106;SDS011;4589;48.690;8.952;2023-04-24T12:21:19;3.40;;;1.80;;
9106;SDS011;4589;48.690;8.952;2023-04-24T12:23:46;2.33;;;1.90;;
9106;SDS011;4589;48.690;8.952;2023-04-24T12:26:15;2.27;;;1.53;;
9106;SDS011;4589;48.690;8.952;2023-04-24T12:28:42;1.40;;;1.30;;
9106;SDS011;4589;48.690;8.952;2023-04-24T12:31:11;1.50;;;1.40;;
9106;SDS011;4589;48.690;8.952;2023-04-24T12:33:36;3.37;;;1.43;;
9106;SDS011;4589;48.690;8.952;2023-04-24T12:36:03;1.40;;;1.30;;
9106;SDS011;4589;48.690;8.952;2023-04-24T12:38:30;2.13;;;1.93;;
9106;SDS011;4589;48.690;8.952;2023-04-24T12:41:03;3.33;;;1.67;;
9106;SDS011;4589;48.690;8.952;2023-04-24T12:43:33;2.30;;;1.70;;
9106;SDS011;4589;48.690;8.952;2023-04-24T12:45:59;3.53;;;1.60;;
9106;SDS011;4589;48.690;8.952;2023-04-24T12:48:25;5.10;;;2.40;;
9106;SDS011;4589;48.690;8.952;2023-04-24T12:50:51;2.17;;;1.97;;
9106;SDS011;4589;48.690;8.952;2023-04-24T12:53:17;2.47;;;1.80;;
9106;SDS011;4589;48.690;8.952;2023-04-24T12:55:43;3.00;;;1.57;;
9106;SDS011;4589;48.690;8.952;2023-04-24T12:58:09;1.93;;;1.50;;
9106;SDS011;4589;48.690;8.952;2023-04-24T13:00:35;1.73;;;1.57;;
9106;SDS011;4589;48.690;8.952;2023-04-24T13:03:01;2.47;;;2.00;;
9106;SDS011;4589;48.690;8.952;2023-04-24T13:05:27;2.40;;;1.83;;
9106;SDS011;4589;48.690;8.952;2023-04-24T13:07:53;3.03;;;2.37;;
9106;SDS011;4589;48.690;8.952;2023-04-24T13:10:19;5.27;;;2.23;;
9106;SDS011;4589;48.690;8.952;2023-04-24T13:12:45;4.43;;;1.80;;
9106;SDS011;4589;48.690;8.952;2023-04-24T13:15:11;2.90;;;2.00;;
9106;SDS011;4589;48.690;8.952;2023-04-24T13:17:37;2.70;;;2.50;;
9106;SDS011;4589;48.690;8.952;2023-04-24T13:20:03;4.50;;;2.87;;
9106;SDS011;4589;48.690;8.952;2023-04-24T13:22:29;2.10;;;1.90;;
9106;SDS011;4589;48.690;8.952;2023-04-24T13:24:55;3.10;;;2.80;;
9106;SDS011;4589;48.690;8.952;2023-04-24T13:27:21;1.97;;;1.87;;
9106;SDS011;4589;48.690;8.952;2023-04-24T13:29:46;2.63;;;2.17;;
9106;SDS011;4589;48.690;8.952;2023-04-24T13:32:12;5.20;;;2.20;;
9106;SDS011;4589;48.690;8.952;2023-04-24T13:34:39;2.07;;;1.97;;
9106;SDS011;4589;48.690;8.952;2023-04-24T13:37:05;4.60;;;3.40;;
9106;SDS011;4589;48.690;8.952;2023-04-24T13:39:32;3.53;;;3.23;;
9106;SDS011;4589;48.690;8.952;2023-04-24T13:41:58;3.90;;;2.93;;
9106;SDS011;4589;48.690;8.952;2023-04-24T13:44:24;2.53;;;2.20;;
9106;SDS011;4589;48.690;8.952;2023-04-24T13:46:52;4.53;;;2.50;;
9106;SDS011;4589;48.690;8.952;2023-04-24T13:49:22;2.77;;;2.43;;
9106;SDS011;4589;48.690;8.952;2023-04-24T13:51:49;2.80;;;2.23;;
9106;SDS011;4589;48.690;8.952;2023-04-24T13:54:15;4.07;;;2.83;;
9106;SDS011;4589;48.690;8.952;2023-04-24T13:56:41;3.27;;;2.10;;
9106;SDS011;4589;48.690;8.952;2023-04-24T13:59:07;2.57;;;2.37;;
9106;SDS011;4589;48.690;8.952;2023-04-24T14:01:33;2.60;;;2.27;;
9106;SDS011;4589;48.690;8.952;2023-04-24T14:03:59;2.20;;;2.00;;
9106;SDS011;4589;48.690;8.952;2023-04-24T14:06:25;2.53;;;2.33;;
9106;SDS011;4589;48.690;8.952;2023-04-24T14:08:51;2.77;;;2.37;;
9106;SDS011;4589;48.690;8.952;2023-04-24T14:11:17;2.67;;;2.47;;
9106;SDS011;4589;48.690;8.952;2023-04-24T14:13:44;3.30;;;3.00;;
9106;SDS011;4589;48.690;8.952;2023-04-24T14:16:10;4.10;;;2.90;;
9106;SDS011;4589;48.690;8.952;2023-04-24T14:18:36;8.23;;;3.20;;
9106;SDS011;4589;48.690;8.952;2023-04-24T14:21:05;3.67;;;2.90;;
9106;SDS011;4589;48.690;8.952;2023-04-24T14:23:31;5.00;;;2.90;;
9106;SDS011;4589;48.690;8.952;2023-04-24T14:25:57;5.27;;;3.00;;
9106;SDS011;4589;48.690;8.952;2023-04-24T14:28:23;3.57;;;3.27;;
9106;SDS011;4589;48.690;8.952;2023-04-24T14:30:50;3.40;;;3.10;;
9106;SDS011;4589;48.690;8.952;2023-04-24T14:33:15;5.37;;;2.70;;
9106;SDS011;4589;48.690;8.952;2023-04-24T14:35:42;3.20;;;2.60;;
9106;SDS011;4589;48.690;8.952;2023-04-24T14:38:08;3.23;;;3.00;;
9106;SDS011;4589;48.690;8.952;2023-04-24T14:40:34;4.20;;;2.50;;
9106;SDS011;4589;48.690;8.952;2023-04-24T14:43:00;3.23;;;2.40;;
9106;SDS011;4589;48.690;8.952;2023-04-24T14:45:26;2.43;;;2.23;;
9106;SDS011;4589;48.690;8.952;2023-04-24T14:47:52;2.90;;;2.03;;
9106;SDS011;4589;48.690;8.952;2023-04-24T14:50:18;4.93;;;2.37;;
9106;SDS011;4589;48.690;8.952;2023-04-24T14:52:45;2.93;;;2.43;;
9106;SDS011;4589;48.690;8.952;2023-04-24T14:55:11;2.23;;;2.00;;
9106;SDS011;4589;48.690;8.952;2023-04-24T14:57:37;2.70;;;2.10;;
9106;SDS011;4589;48.690;8.952;2023-04-24T15:00:04;3.50;;;2.00;;
9106;SDS011;4589;48.690;8.952;2023-04-24T15:02:33;4.10;;;2.00;;
9106;SDS011;4589;48.690;8.952;2023-04-24T15:05:01;2.10;;;1.90;;
9106;SDS011;4589;48.690;8.952;2023-04-24T15:07:27;1.80;;;1.70;;
9106;SDS011;4589;48.690;8.952;2023-04-24T15:09:53;3.03;;;2.50;;
9106;SDS011;4589;48.690;8.952;2023-04-24T15:12:19;3.00;;;1.67;;
9106;SDS011;4589;48.690;8.952;2023-04-24T15:14:45;2.00;;;1.80;;
9106;SDS011;4589;48.690;8.952;2023-04-24T15:17:11;2.50;;;2.30;;
9106;SDS011;4589;48.690;8.952;2023-04-24T15:19:37;1.80;;;1.70;;
9106;SDS011;4589;48.690;8.952;2023-04-24T15:22:03;2.00;;;1.80;;